createdAt,value
2017-09-08T00:01:45.155Z,6.30
2017-09-08T00:04:12.647Z,6.50
2017-09-08T00:06:40.164Z,6.60
2017-09-08T00:09:07.647Z,4.97
2017-09-08T00:11:36.122Z,7.47
2017-09-08T00:14:03.659Z,5.03
2017-09-08T00:16:31.175Z,5.93
2017-09-08T00:18:58.661Z,5.80
2017-09-08T00:21:26.180Z,6.67
2017-09-08T00:23:53.704Z,4.97
2017-09-08T00:26:21.251Z,5.73
2017-09-08T00:28:48.738Z,5.77
2017-09-08T00:31:16.240Z,5.93
2017-09-08T00:33:43.728Z,4.93
2017-09-08T00:36:11.239Z,5.20
2017-09-08T00:38:38.831Z,6.83
2017-09-08T00:41:06.342Z,5.40
2017-09-08T00:43:33.831Z,5.90
2017-09-08T00:46:01.849Z,5.87
2017-09-08T00:48:29.379Z,4.93
2017-09-08T00:50:56.924Z,5.60
2017-09-08T00:53:24.425Z,6.50
2017-09-08T00:55:52.893Z,6.10
2017-09-08T00:58:20.374Z,5.40
2017-09-08T01:00:47.906Z,5.57
2017-09-08T01:03:15.416Z,6.07
2017-09-08T01:05:42.984Z,6.43
2017-09-08T01:08:10.506Z,7.20
2017-09-08T01:10:38.064Z,5.50
2017-09-08T01:13:05.567Z,6.57
2017-09-08T01:15:33.070Z,5.97
2017-09-08T01:18:00.551Z,5.63
2017-09-08T01:20:28.083Z,6.00
2017-09-08T01:22:55.567Z,6.03
2017-09-08T01:25:23.094Z,5.87
2017-09-08T01:27:50.577Z,6.60
2017-09-08T01:30:18.110Z,5.60
2017-09-08T01:32:45.650Z,6.20
2017-09-08T01:35:13.168Z,5.73
2017-09-08T01:37:40.654Z,5.40
2017-09-08T01:40:08.164Z,5.33
2017-09-08T01:42:36.617Z,6.57
2017-09-08T01:45:04.124Z,5.57
2017-09-08T01:47:31.610Z,5.77
2017-09-08T01:50:00.062Z,6.03
2017-09-08T01:52:27.542Z,6.10
2017-09-08T01:54:57.007Z,5.93
2017-09-08T01:57:24.494Z,6.00
2017-09-08T01:59:52.020Z,7.63
2017-09-08T02:02:19.514Z,6.07
2017-09-08T02:04:47.046Z,6.70
2017-09-08T02:07:14.539Z,5.93
2017-09-08T02:09:42.046Z,5.93
2017-09-08T02:12:09.569Z,5.90
2017-09-08T02:14:38.041Z,5.97
2017-09-08T02:17:05.538Z,5.70
2017-09-08T02:19:33.467Z,5.97
2017-09-08T02:22:06.663Z,5.70
2017-09-08T02:24:35.063Z,5.60
2017-09-08T02:27:03.012Z,6.43
2017-09-08T02:29:30.517Z,6.20
2017-09-08T02:31:58.016Z,6.47
2017-09-08T02:34:25.514Z,5.37
2017-09-08T02:36:53.027Z,4.90
2017-09-08T02:39:20.521Z,6.00
2017-09-08T02:41:48.421Z,5.73
2017-09-08T02:44:15.936Z,5.77
2017-09-08T02:46:43.840Z,5.83
2017-09-08T02:49:11.346Z,5.37
2017-09-08T02:51:39.263Z,5.87
2017-09-08T02:54:06.757Z,5.83
2017-09-08T02:56:34.284Z,6.03
2017-09-08T02:59:01.796Z,5.87
2017-09-08T03:01:29.299Z,5.47
2017-09-08T03:03:56.811Z,4.97
2017-09-08T03:06:24.310Z,6.00
2017-09-08T03:08:53.776Z,5.20
2017-09-08T03:11:21.328Z,5.70
2017-09-08T03:13:50.043Z,5.63
2017-09-08T03:16:17.563Z,5.50
2017-09-08T03:18:45.080Z,6.57
2017-09-08T03:21:12.575Z,5.90
2017-09-08T03:23:40.105Z,4.60
2017-09-08T03:26:08.545Z,5.40
2017-09-08T03:28:36.078Z,4.90
2017-09-08T03:31:03.602Z,5.03
2017-09-08T03:33:33.066Z,6.10
2017-09-08T03:36:00.952Z,6.00
2017-09-08T03:38:29.452Z,5.90
2017-09-08T03:40:56.973Z,5.97
2017-09-08T03:43:24.482Z,5.43
2017-09-08T03:45:52.927Z,4.80
2017-09-08T03:48:20.436Z,5.77
2017-09-08T03:50:47.927Z,5.77
2017-09-08T03:53:16.354Z,5.13
2017-09-08T03:55:43.871Z,5.80
2017-09-08T03:58:11.369Z,6.17
2017-09-08T04:00:39.774Z,4.60
2017-09-08T04:03:07.658Z,5.10
2017-09-08T04:05:35.168Z,5.13
2017-09-08T04:08:03.597Z,4.93
2017-09-08T04:10:31.100Z,6.23
2017-09-08T04:12:59.571Z,5.80
2017-09-08T04:15:27.100Z,5.60
2017-09-08T04:17:54.596Z,5.80
2017-09-08T04:20:23.034Z,5.70
2017-09-08T04:22:50.527Z,5.87
2017-09-08T04:25:18.039Z,4.93
2017-09-08T04:27:47.522Z,4.90
2017-09-08T04:30:15.344Z,4.80
2017-09-08T04:32:42.851Z,4.83
2017-09-08T04:35:10.359Z,4.47
2017-09-08T04:37:37.867Z,4.50
2017-09-08T04:40:05.399Z,5.17
2017-09-08T04:42:32.933Z,4.57
2017-09-08T04:45:00.410Z,5.80
2017-09-08T04:47:27.923Z,5.60
2017-09-08T04:49:56.491Z,5.73
2017-09-08T04:52:25.987Z,5.57
2017-09-08T04:54:53.495Z,5.53
2017-09-08T04:57:21.016Z,4.77
2017-09-08T04:59:48.534Z,6.10
2017-09-08T05:02:16.863Z,5.23
2017-09-08T05:04:44.400Z,5.80
2017-09-08T05:07:11.914Z,6.13
2017-09-08T05:09:40.351Z,4.37
2017-09-08T05:12:08.255Z,4.80
2017-09-08T05:14:35.774Z,4.50
2017-09-08T05:17:03.270Z,5.90
2017-09-08T05:19:30.771Z,5.63
2017-09-08T05:21:58.287Z,5.77
2017-09-08T05:24:25.794Z,5.27
2017-09-08T05:26:53.298Z,5.10
2017-09-08T05:29:22.774Z,5.47
2017-09-08T05:31:50.280Z,5.20
2017-09-08T05:34:19.714Z,5.60
2017-09-08T05:36:47.449Z,5.03
2017-09-08T05:39:14.973Z,5.27
2017-09-08T05:41:42.472Z,5.47
2017-09-08T05:44:10.928Z,5.90
2017-09-08T05:46:39.355Z,5.77
2017-09-08T05:49:07.266Z,5.83
2017-09-08T05:51:34.747Z,5.47
2017-09-08T05:54:02.231Z,5.60
2017-09-08T05:56:29.779Z,5.10
2017-09-08T05:58:57.280Z,4.93
2017-09-08T06:01:25.715Z,5.00
2017-09-08T06:03:53.235Z,4.73
2017-09-08T06:06:20.735Z,6.20
2017-09-08T06:08:48.248Z,5.23
2017-09-08T06:11:15.735Z,5.70
2017-09-08T06:13:43.257Z,4.17
2017-09-08T06:16:11.670Z,4.60
2017-09-08T06:18:39.163Z,4.37
2017-09-08T06:21:06.671Z,4.70
2017-09-08T06:23:37.916Z,5.00
2017-09-08T06:26:05.822Z,3.83
2017-09-08T06:28:33.354Z,5.07
2017-09-08T06:31:00.852Z,5.47
2017-09-08T06:33:28.381Z,5.90
2017-09-08T06:35:55.913Z,5.00
2017-09-08T06:38:23.431Z,6.10
2017-09-08T06:40:50.975Z,6.83
2017-09-08T06:43:18.495Z,6.23
2017-09-08T06:45:45.987Z,5.33
2017-09-08T06:48:13.500Z,5.60
2017-09-08T06:50:40.986Z,5.30
2017-09-08T06:53:08.476Z,4.67
2017-09-08T06:55:35.999Z,4.83
2017-09-08T06:58:04.467Z,5.47
2017-09-08T07:00:32.656Z,4.93
2017-09-08T07:03:01.102Z,4.67
2017-09-08T07:05:28.606Z,5.27
2017-09-08T07:07:56.119Z,4.77
2017-09-08T07:10:23.624Z,5.00
2017-09-08T07:12:52.042Z,4.90
2017-09-08T07:15:20.487Z,5.40
2017-09-08T07:17:48.679Z,5.03
2017-09-08T07:20:18.121Z,4.13
2017-09-08T07:22:46.560Z,4.90
2017-09-08T07:25:14.066Z,4.50
2017-09-08T07:27:41.551Z,4.80
2017-09-08T07:30:09.062Z,4.27
2017-09-08T07:32:36.591Z,5.33
2017-09-08T07:35:04.094Z,4.77
2017-09-08T07:37:31.574Z,4.40
2017-09-08T07:39:59.090Z,4.90
2017-09-08T07:42:27.536Z,4.27
2017-09-08T07:44:55.052Z,4.17
2017-09-08T07:47:22.567Z,4.53
2017-09-08T07:49:50.240Z,3.97
2017-09-08T07:52:18.671Z,3.53
2017-09-08T07:54:46.186Z,4.37
2017-09-08T07:57:13.680Z,4.50
2017-09-08T07:59:41.201Z,5.13
2017-09-08T08:02:08.689Z,3.77
2017-09-08T08:04:36.210Z,4.80
2017-09-08T08:07:05.303Z,3.87
2017-09-08T08:09:32.814Z,4.73
2017-09-08T08:12:01.741Z,4.50
2017-09-08T08:14:29.376Z,4.00
2017-09-08T08:16:56.875Z,5.00
2017-09-08T08:19:24.388Z,4.30
2017-09-08T08:21:51.910Z,4.50
2017-09-08T08:24:20.236Z,4.83
2017-09-08T08:26:48.679Z,4.80
2017-09-08T08:29:17.542Z,5.00
2017-09-08T08:31:45.029Z,4.60
2017-09-08T08:34:12.543Z,4.60
2017-09-08T08:36:40.037Z,4.00
2017-09-08T08:39:08.391Z,3.70
2017-09-08T08:41:35.884Z,4.80
2017-09-08T08:44:03.803Z,4.00
2017-09-08T08:46:33.555Z,4.57
2017-09-08T08:49:01.074Z,4.73
2017-09-08T08:51:29.505Z,3.53
2017-09-08T08:53:57.021Z,3.80
2017-09-08T08:56:25.082Z,3.80
2017-09-08T08:58:52.588Z,4.40
2017-09-08T09:01:20.655Z,4.00
2017-09-08T09:03:49.563Z,4.60
2017-09-08T09:06:24.579Z,4.07
2017-09-08T09:08:56.670Z,4.00
2017-09-08T09:11:24.167Z,3.60
2017-09-08T09:13:54.798Z,4.43
2017-09-08T09:16:23.200Z,4.27
2017-09-08T09:18:53.153Z,4.20
2017-09-08T09:21:20.654Z,3.80
2017-09-08T09:23:48.176Z,4.23
2017-09-08T09:26:15.674Z,4.30
2017-09-08T09:28:43.192Z,3.90
2017-09-08T09:31:10.669Z,4.00
2017-09-08T09:33:40.127Z,4.23
2017-09-08T09:36:07.638Z,5.10
2017-09-08T09:38:35.171Z,4.00
2017-09-08T09:41:02.662Z,4.67
2017-09-08T09:43:30.154Z,4.07
2017-09-08T09:45:57.643Z,3.20
2017-09-08T09:48:26.111Z,3.60
2017-09-08T09:50:54.346Z,3.93
2017-09-08T09:53:21.856Z,4.77
2017-09-08T09:55:49.342Z,3.60
2017-09-08T09:58:16.847Z,3.90
2017-09-08T10:00:45.298Z,4.53
2017-09-08T10:03:13.322Z,5.10
2017-09-08T10:05:40.835Z,3.73
2017-09-08T10:08:08.735Z,4.30
2017-09-08T10:10:36.227Z,4.83
2017-09-08T10:13:03.712Z,4.20
2017-09-08T10:15:31.215Z,4.43
2017-09-08T10:17:58.790Z,4.47
2017-09-08T10:20:26.278Z,5.37
2017-09-08T10:22:53.990Z,4.83
2017-09-08T10:25:22.113Z,10.33
2017-09-08T10:27:49.606Z,4.30
2017-09-08T10:30:17.126Z,4.50
2017-09-08T10:32:44.659Z,4.50
2017-09-08T10:35:12.164Z,3.77
2017-09-08T10:37:39.686Z,4.67
2017-09-08T10:40:07.166Z,4.67
2017-09-08T10:42:37.039Z,4.90
2017-09-08T10:45:06.506Z,5.40
2017-09-08T10:47:33.998Z,4.33
2017-09-08T10:50:01.489Z,4.40
2017-09-08T10:52:29.009Z,4.20
2017-09-08T10:54:56.504Z,4.53
2017-09-08T10:57:24.419Z,4.23
2017-09-08T10:59:53.890Z,4.23
2017-09-08T11:02:21.401Z,3.87
2017-09-08T11:04:48.898Z,4.70
2017-09-08T11:07:16.462Z,5.43
2017-09-08T11:09:43.958Z,4.37
2017-09-08T11:12:12.234Z,4.97
2017-09-08T11:14:39.776Z,5.03
2017-09-08T11:17:07.271Z,4.23
2017-09-08T11:19:34.772Z,4.40
2017-09-08T11:22:02.422Z,5.10
2017-09-08T11:24:30.794Z,4.80
2017-09-08T11:26:58.774Z,4.73
2017-09-08T11:29:26.287Z,4.77
2017-09-08T11:31:55.259Z,4.37
2017-09-08T11:34:28.947Z,3.90
2017-09-08T11:37:02.211Z,5.57
2017-09-08T11:39:29.715Z,5.17
2017-09-08T11:41:57.263Z,4.57
2017-09-08T11:44:33.807Z,4.30
2017-09-08T11:47:02.457Z,5.07
2017-09-08T11:49:29.951Z,4.77
2017-09-08T11:51:57.474Z,7.10
2017-09-08T11:54:25.878Z,4.67
2017-09-08T11:56:53.763Z,4.57
2017-09-08T11:59:21.263Z,4.67
2017-09-08T12:01:52.544Z,4.57
2017-09-08T12:04:20.088Z,5.10
2017-09-08T12:06:47.632Z,4.47
2017-09-08T12:09:15.122Z,4.30
2017-09-08T12:11:43.529Z,4.00
2017-09-08T12:14:12.210Z,4.63
2017-09-08T12:16:40.435Z,4.87
2017-09-08T12:19:07.917Z,4.17
2017-09-08T12:21:36.147Z,4.60
2017-09-08T12:24:03.635Z,3.80
2017-09-08T12:26:31.515Z,3.50
2017-09-08T12:28:59.013Z,4.03
2017-09-08T12:31:33.995Z,4.37
2017-09-08T12:34:10.987Z,4.50
2017-09-08T12:36:42.735Z,4.80
2017-09-08T12:41:50.407Z,3.93
2017-09-08T12:44:17.996Z,3.93
2017-09-08T12:46:45.625Z,4.03
2017-09-08T12:49:13.280Z,3.90
2017-09-08T12:51:40.817Z,4.23
2017-09-08T12:54:08.440Z,4.00
2017-09-08T12:56:41.728Z,4.47
2017-09-08T12:59:15.230Z,3.50
2017-09-08T13:01:42.889Z,3.53
2017-09-08T13:04:10.550Z,5.33
2017-09-08T13:06:38.121Z,3.77
2017-09-08T13:09:32.697Z,3.70
2017-09-08T13:12:01.333Z,3.30
2017-09-08T13:17:37.297Z,3.23
2017-09-08T13:20:09.459Z,2.87
2017-09-08T13:22:41.563Z,2.90
2017-09-08T13:25:12.271Z,3.10
2017-09-08T13:28:10.031Z,2.77
2017-09-08T13:31:25.230Z,2.67
2017-09-08T13:33:54.632Z,2.63
2017-09-08T13:37:11.113Z,2.23
2017-09-08T13:39:38.933Z,2.20
2017-09-08T13:42:09.631Z,2.03
2017-09-08T13:44:37.170Z,2.13
2017-09-08T13:47:06.161Z,2.13
2017-09-08T13:49:33.892Z,2.20
2017-09-08T13:52:01.555Z,2.53
2017-09-08T13:54:29.254Z,2.90
2017-09-08T13:56:58.986Z,2.27
2017-09-08T13:59:26.632Z,1.90
2017-09-08T14:01:54.159Z,2.60
2017-09-08T14:04:22.800Z,2.53
2017-09-08T14:06:50.345Z,2.87
2017-09-08T14:09:26.717Z,2.33
2017-09-08T14:12:08.733Z,2.70
2017-09-08T14:14:37.072Z,2.10
2017-09-08T14:17:06.239Z,2.20
2017-09-08T14:19:33.839Z,2.37
2017-09-08T14:22:02.543Z,2.07
2017-09-08T14:24:30.210Z,1.70
2017-09-08T14:26:57.828Z,2.00
2017-09-08T14:29:34.414Z,1.83
2017-09-08T14:32:02.774Z,2.60
2017-09-08T14:34:37.109Z,1.73
2017-09-08T14:37:05.593Z,1.80
2017-09-08T14:39:35.461Z,1.90
2017-09-08T14:42:07.895Z,1.90
2017-09-08T14:44:37.447Z,1.97
2017-09-08T14:47:05.077Z,2.20
2017-09-08T14:49:33.308Z,1.80
2017-09-08T14:52:09.847Z,2.10
2017-09-08T14:54:37.672Z,2.10
2017-09-08T14:57:20.360Z,2.27
2017-09-08T14:59:49.031Z,1.57
2017-09-08T15:02:18.815Z,1.83
2017-09-08T15:04:46.445Z,1.80
2017-09-08T15:07:15.559Z,2.30
2017-09-08T15:09:44.613Z,2.60
2017-09-08T15:12:13.493Z,1.80
2017-09-08T15:14:42.766Z,1.53
2017-09-08T15:17:10.308Z,1.60
2017-09-08T15:19:39.297Z,2.33
2017-09-08T15:22:06.906Z,1.73
2017-09-08T15:24:36.352Z,2.50
2017-09-08T15:27:03.936Z,2.23
2017-09-08T15:29:31.536Z,2.23
2017-09-08T15:32:00.012Z,2.47
2017-09-08T15:34:27.548Z,1.83
2017-09-08T15:36:55.078Z,2.20
2017-09-08T15:39:22.585Z,2.23
2017-09-08T15:41:50.161Z,1.60
2017-09-08T15:44:18.586Z,2.10
2017-09-08T15:46:46.143Z,1.93
2017-09-08T15:49:13.648Z,2.30
2017-09-08T15:51:41.722Z,2.80
2017-09-08T15:54:11.053Z,1.87
2017-09-08T15:56:38.585Z,2.00
2017-09-08T15:59:06.151Z,2.13
2017-09-08T16:01:33.634Z,1.97
2017-09-08T16:04:02.298Z,2.40
2017-09-08T16:06:29.809Z,2.60
2017-09-08T16:08:57.331Z,3.00
2017-09-08T16:11:24.820Z,2.00
2017-09-08T16:13:52.323Z,2.20
2017-09-08T16:16:19.828Z,2.83
2017-09-08T16:18:47.347Z,2.30
2017-09-08T16:21:15.780Z,2.00
2017-09-08T16:23:43.282Z,2.20
2017-09-08T16:26:11.616Z,2.60
2017-09-08T16:28:40.324Z,2.17
2017-09-08T16:31:09.032Z,2.33
2017-09-08T16:33:36.694Z,2.63
2017-09-08T16:36:04.235Z,2.50
2017-09-08T16:38:33.074Z,2.97
2017-09-08T16:41:00.572Z,3.00
2017-09-08T16:43:28.067Z,2.60
2017-09-08T16:45:55.593Z,1.87
2017-09-08T16:48:23.124Z,2.80
2017-09-08T16:50:50.617Z,2.27
2017-09-08T16:53:18.113Z,2.40
2017-09-08T16:55:46.551Z,2.00
2017-09-08T16:58:14.096Z,2.13
2017-09-08T17:00:42.853Z,2.10
2017-09-08T17:03:10.368Z,2.70
2017-09-08T17:05:37.903Z,2.57
2017-09-08T17:08:05.387Z,2.50
2017-09-08T17:10:32.895Z,2.40
2017-09-08T17:13:00.457Z,2.40
2017-09-08T17:15:27.956Z,2.10
2017-09-08T17:17:55.461Z,2.50
2017-09-08T17:20:23.011Z,2.37
2017-09-08T17:22:50.528Z,2.60
2017-09-08T17:25:18.041Z,2.20
2017-09-08T17:27:45.599Z,1.90
2017-09-08T17:30:13.079Z,2.73
2017-09-08T17:32:40.635Z,3.03
2017-09-08T17:35:08.139Z,2.93
2017-09-08T17:37:36.038Z,2.57
2017-09-08T17:40:03.618Z,2.03
2017-09-08T17:42:31.151Z,3.00
2017-09-08T17:44:58.642Z,3.13
2017-09-08T17:47:26.163Z,3.00
2017-09-08T17:49:53.684Z,3.10
2017-09-08T17:52:21.234Z,3.43
2017-09-08T17:54:48.802Z,3.30
2017-09-08T17:57:16.320Z,2.77
2017-09-08T17:59:43.859Z,2.97
2017-09-08T18:02:11.353Z,3.17
2017-09-08T18:04:39.844Z,3.00
2017-09-08T18:07:07.394Z,2.90
2017-09-08T18:12:08.860Z,3.10
2017-09-08T18:14:36.337Z,2.60
2017-09-08T18:17:03.976Z,2.77
2017-09-08T18:19:31.582Z,3.00
2017-09-08T18:21:59.073Z,2.97
2017-09-08T18:24:26.622Z,3.33
2017-09-08T18:26:54.126Z,3.40
2017-09-08T18:29:21.663Z,2.77
2017-09-08T18:31:49.772Z,3.03
2017-09-08T18:34:18.443Z,3.07
2017-09-08T18:36:46.869Z,3.50
2017-09-08T18:39:14.381Z,3.27
2017-09-08T18:41:42.258Z,3.50
2017-09-08T18:44:10.906Z,3.20
2017-09-08T18:46:39.335Z,3.30
2017-09-08T18:49:06.838Z,2.77
2017-09-08T18:51:34.342Z,2.97
2017-09-08T18:54:01.846Z,3.40
2017-09-08T18:56:30.275Z,2.77
2017-09-08T18:58:57.823Z,3.20
2017-09-08T19:01:25.715Z,3.33
2017-09-08T19:03:56.432Z,2.40
2017-09-08T19:06:23.926Z,3.63
2017-09-08T19:08:51.451Z,3.00
2017-09-08T19:11:20.956Z,4.00
2017-09-08T19:13:48.535Z,2.80
2017-09-08T19:16:16.649Z,3.57
2017-09-08T19:18:44.146Z,3.17
2017-09-08T19:21:11.679Z,3.53
2017-09-08T19:23:39.177Z,2.90
2017-09-08T19:26:06.686Z,3.00
2017-09-08T19:28:34.222Z,3.00
2017-09-08T19:31:01.699Z,2.20
2017-09-08T19:33:29.281Z,2.97
2017-09-08T19:35:57.828Z,3.03
2017-09-08T19:38:26.193Z,3.17
2017-09-08T19:40:53.692Z,2.57
2017-09-08T19:43:21.231Z,2.40
2017-09-08T19:45:48.834Z,3.30
2017-09-08T19:48:17.030Z,3.20
2017-09-08T19:50:44.546Z,2.80
2017-09-08T19:53:12.050Z,3.10
2017-09-08T19:55:39.596Z,3.13
2017-09-08T19:58:07.113Z,3.00
2017-09-08T20:00:34.612Z,3.37
2017-09-08T20:03:02.131Z,2.90
2017-09-08T20:05:29.643Z,3.20
2017-09-08T20:07:57.141Z,3.37
2017-09-08T20:10:24.647Z,3.67
2017-09-08T20:12:52.154Z,2.83
2017-09-08T20:15:20.792Z,3.30
2017-09-08T20:17:49.219Z,3.30
2017-09-08T20:20:16.790Z,3.80
2017-09-08T20:22:44.352Z,3.40
2017-09-08T20:25:11.861Z,3.90
2017-09-08T20:27:39.512Z,3.27
2017-09-08T20:30:07.967Z,3.27
2017-09-08T20:32:35.852Z,3.20
2017-09-08T20:35:04.065Z,3.67
2017-09-08T20:37:33.489Z,4.10
2017-09-08T20:40:04.047Z,3.80
2017-09-08T20:45:06.405Z,3.80
2017-09-08T20:47:37.021Z,3.43
2017-09-08T20:50:04.649Z,3.60
2017-09-08T20:52:37.871Z,3.53
2017-09-08T20:55:05.530Z,3.53
2017-09-08T20:57:35.298Z,3.90
2017-09-08T21:00:05.573Z,5.37
2017-09-08T21:02:36.802Z,4.03
2017-09-08T21:05:05.476Z,3.37
2017-09-08T21:07:35.844Z,3.37
2017-09-08T21:10:04.219Z,4.30
2017-09-08T21:12:34.846Z,4.17
2017-09-08T21:15:16.537Z,4.67
2017-09-08T21:17:44.856Z,4.17
2017-09-08T21:20:13.129Z,3.73
2017-09-08T21:22:41.498Z,3.57
2017-09-08T21:25:09.162Z,3.63
2017-09-08T21:27:37.219Z,4.20
2017-09-08T21:30:05.473Z,4.00
2017-09-08T21:35:09.512Z,3.17
2017-09-08T21:38:13.266Z,3.73
2017-09-08T21:40:41.913Z,4.20
2017-09-08T21:43:12.075Z,3.87
2017-09-08T21:48:12.275Z,3.00
2017-09-08T21:50:42.223Z,3.23
2017-09-08T21:53:09.776Z,3.33
2017-09-08T21:55:39.606Z,3.90
2017-09-08T21:58:09.249Z,3.30
2017-09-08T22:00:44.391Z,3.90
2017-09-08T22:03:14.067Z,4.07
2017-09-08T22:05:46.855Z,3.53
2017-09-08T22:08:15.500Z,3.97
2017-09-08T22:10:47.110Z,3.40
2017-09-08T22:13:14.713Z,3.30
2017-09-08T22:15:43.051Z,3.00
2017-09-08T22:18:10.625Z,3.17
2017-09-08T22:20:39.792Z,3.50
2017-09-08T22:23:07.396Z,3.50
2017-09-08T22:25:37.097Z,2.77
2017-09-08T22:28:05.296Z,3.17
2017-09-08T22:30:38.099Z,2.77
2017-09-08T22:33:06.106Z,3.07
2017-09-08T22:35:35.950Z,3.50
2017-09-08T22:38:03.527Z,3.50
2017-09-08T22:40:32.462Z,2.67
2017-09-08T22:43:00.056Z,3.47
2017-09-08T22:45:28.468Z,2.80
2017-09-08T22:47:56.541Z,3.40
2017-09-08T22:50:25.132Z,3.63
2017-09-08T22:52:52.777Z,3.40
2017-09-08T22:55:25.075Z,3.40
2017-09-08T22:57:55.312Z,2.80
2017-09-08T23:00:25.101Z,2.80
2017-09-08T23:02:52.622Z,2.73
2017-09-08T23:05:21.943Z,3.43
2017-09-08T23:07:51.066Z,2.60
2017-09-08T23:10:18.615Z,2.70
2017-09-08T23:12:46.163Z,2.67
2017-09-08T23:15:14.735Z,2.83
2017-09-08T23:17:42.313Z,2.40
2017-09-08T23:20:12.220Z,2.00
2017-09-08T23:22:40.105Z,2.63
2017-09-08T23:25:08.941Z,2.93
2017-09-08T23:27:36.605Z,2.97
2017-09-08T23:30:05.009Z,3.00
2017-09-08T23:32:32.579Z,2.27
2017-09-08T23:35:00.135Z,3.43
2017-09-08T23:37:28.705Z,2.70
2017-09-08T23:39:56.379Z,2.90
2017-09-08T23:42:23.968Z,2.70
2017-09-08T23:44:53.142Z,2.67
2017-09-08T23:47:20.744Z,3.20
2017-09-08T23:49:48.630Z,2.70
2017-09-08T23:52:16.305Z,2.73
2017-09-08T23:54:43.985Z,2.23
2017-09-08T23:57:13.558Z,3.13
2017-09-08T23:59:43.307Z,2.43
